CES6713 ZSPD-ZBTJ
Flight info
| Callsign | CES6713 |
|---|---|
| Flight time | N/A |
| Altitude | 34100 |
| Route | PIK86D PIKAS G330 PIMOL A593 DALIM W157 AVBOX AVBOX2R |
| Aircraft | A320/M-SDE3FGHIRWY/LB1 |
Departure
| Time | 2026-04-30 14:00 |
|---|---|
| Airport | Shanghai Pudong International Airport (ZSPD) |
Arrival
| Time | N/A |
|---|---|
| Airport | Tianjin Binhai International Airport (ZBTJ) |
| Time | Latitude | Longitude | Altitude | Speed | Heading |
|---|---|---|---|---|---|
| 2026-04-30 13:40 | 31.14918 | 121.80708 | 23 ft | 0 kts | 72° |
| 2026-04-30 13:45 | 31.14914 | 121.80696 | 25 ft | 2 kts | 78° |
| 2026-04-30 13:45 | 31.14911 | 121.80676 | 24 ft | 2 kts | 78° |
| 2026-04-30 13:45 | 31.14907 | 121.80657 | 24 ft | 2 kts | 94° |
| 2026-04-30 13:46 | 31.14912 | 121.80639 | 24 ft | 1 kts | 149° |
| 2026-04-30 13:46 | 31.14913 | 121.80639 | 24 ft | 0 kts | 149° |
| 2026-04-30 13:50 | 31.14900 | 121.80642 | 25 ft | 6 kts | 175° |
| 2026-04-30 13:50 | 31.14716 | 121.80693 | 23 ft | 15 kts | 162° |
| 2026-04-30 13:50 | 31.14620 | 121.80729 | 23 ft | 13 kts | 162° |
| 2026-04-30 13:51 | 31.14536 | 121.80761 | 23 ft | 12 kts | 162° |
| 2026-04-30 13:51 | 31.14457 | 121.80792 | 23 ft | 13 kts | 153° |
| 2026-04-30 13:51 | 31.14460 | 121.80896 | 25 ft | 16 kts | 72° |
| 2026-04-30 13:51 | 31.14499 | 121.81035 | 23 ft | 20 kts | 71° |
| 2026-04-30 13:52 | 31.14543 | 121.81195 | 23 ft | 18 kts | 72° |
| 2026-04-30 13:52 | 31.14582 | 121.81338 | 23 ft | 16 kts | 72° |
| 2026-04-30 13:52 | 31.14649 | 121.81426 | 23 ft | 17 kts | 345° |
| 2026-04-30 13:52 | 31.14767 | 121.81380 | 23 ft | 18 kts | 342° |
| 2026-04-30 13:53 | 31.14805 | 121.81366 | 23 ft | 0 kts | 342° |
| 2026-04-30 13:56 | 31.14806 | 121.81366 | 23 ft | 1 kts | 342° |
| 2026-04-30 13:56 | 31.14851 | 121.81349 | 22 ft | 12 kts | 342° |
| 2026-04-30 13:57 | 31.14966 | 121.81306 | 23 ft | 22 kts | 342° |
| 2026-04-30 13:57 | 31.15120 | 121.81248 | 23 ft | 24 kts | 341° |
| 2026-04-30 13:57 | 31.15275 | 121.81190 | 22 ft | 23 kts | 342° |
| 2026-04-30 13:57 | 31.15429 | 121.81130 | 24 ft | 23 kts | 342° |
| 2026-04-30 13:58 | 31.15584 | 121.81072 | 22 ft | 23 kts | 341° |
| 2026-04-30 13:58 | 31.15765 | 121.81093 | 22 ft | 13 kts | 72° |
| 2026-04-30 13:58 | 31.15790 | 121.81200 | 22 ft | 14 kts | 89° |
| 2026-04-30 13:59 | 31.15720 | 121.81247 | 21 ft | 10 kts | 159° |
| 2026-04-30 13:59 | 31.15717 | 121.81248 | 21 ft | 0 kts | 160° |
| 2026-04-30 13:59 | 31.15594 | 121.81294 | 21 ft | 53 kts | 162° |
| 2026-04-30 13:59 | 31.15026 | 121.81510 | 22 ft | 118 kts | 162° |
| 2026-04-30 14:00 | 31.14060 | 121.81875 | 24 ft | 168 kts | 162° |
| 2026-04-30 14:00 | 31.11598 | 121.82786 | 993 ft | 189 kts | 162° |
| 2026-04-30 14:00 | 31.10352 | 121.83280 | 1566 ft | 197 kts | 162° |
| 2026-04-30 14:01 | 31.09058 | 121.84022 | 1825 ft | 219 kts | 143° |
| 2026-04-30 14:01 | 31.07768 | 121.85144 | 2113 ft | 243 kts | 142° |
| 2026-04-30 14:01 | 31.06339 | 121.86372 | 2549 ft | 264 kts | 143° |
| 2026-04-30 14:01 | 31.04828 | 121.87643 | 3338 ft | 270 kts | 146° |
| 2026-04-30 14:02 | 31.03072 | 121.88399 | 4142 ft | 274 kts | 179° |
| 2026-04-30 14:02 | 31.01248 | 121.87900 | 4988 ft | 272 kts | 214° |
| 2026-04-30 14:02 | 30.99972 | 121.86328 | 5685 ft | 270 kts | 246° |
| 2026-04-30 14:02 | 30.99292 | 121.84308 | 5878 ft | 267 kts | 255° |
| 2026-04-30 14:03 | 30.98754 | 121.82250 | 5915 ft | 264 kts | 257° |
| 2026-04-30 14:03 | 30.98253 | 121.80190 | 5919 ft | 264 kts | 257° |
| 2026-04-30 14:03 | 30.97747 | 121.78124 | 5916 ft | 266 kts | 256° |
| 2026-04-30 14:03 | 30.97224 | 121.76058 | 5920 ft | 266 kts | 255° |
| 2026-04-30 14:04 | 30.96686 | 121.73993 | 5922 ft | 266 kts | 256° |
| 2026-04-30 14:04 | 30.96362 | 121.71889 | 5922 ft | 264 kts | 270° |
| 2026-04-30 14:04 | 30.96558 | 121.69763 | 6339 ft | 265 kts | 285° |
| 2026-04-30 14:04 | 30.96971 | 121.67673 | 7219 ft | 264 kts | 284° |
| 2026-04-30 14:05 | 30.97354 | 121.65579 | 8050 ft | 265 kts | 283° |
| 2026-04-30 14:05 | 30.97730 | 121.63475 | 8873 ft | 266 kts | 282° |
| 2026-04-30 14:05 | 30.98108 | 121.61362 | 9677 ft | 267 kts | 282° |
| 2026-04-30 14:05 | 30.98492 | 121.59231 | 10324 ft | 275 kts | 282° |
| 2026-04-30 14:06 | 30.98907 | 121.56962 | 10499 ft | 298 kts | 282° |
| 2026-04-30 14:06 | 30.99832 | 121.51921 | 10794 ft | 339 kts | 282° |
| 2026-04-30 14:07 | 31.00829 | 121.46470 | 12000 ft | 347 kts | 281° |
| 2026-04-30 14:07 | 31.01335 | 121.43714 | 12669 ft | 349 kts | 281° |
| 2026-04-30 14:07 | 31.01846 | 121.40943 | 13329 ft | 351 kts | 280° |
| 2026-04-30 14:08 | 31.02874 | 121.35352 | 14535 ft | 354 kts | 279° |
| 2026-04-30 14:08 | 31.03389 | 121.32536 | 15109 ft | 356 kts | 279° |
| 2026-04-30 14:08 | 31.04425 | 121.26880 | 16236 ft | 358 kts | 279° |
| 2026-04-30 14:09 | 31.04943 | 121.24038 | 16805 ft | 359 kts | 279° |
| 2026-04-30 14:09 | 31.05463 | 121.21189 | 17407 ft | 359 kts | 278° |
| 2026-04-30 14:09 | 31.07382 | 121.15785 | 18431 ft | 377 kts | 303° |
| 2026-04-30 14:10 | 31.09370 | 121.13711 | 18826 ft | 394 kts | 320° |
| 2026-04-30 14:10 | 31.11953 | 121.12442 | 19224 ft | 416 kts | 339° |
| 2026-04-30 14:10 | 31.14893 | 121.12096 | 19605 ft | 430 kts | 349° |
| 2026-04-30 14:10 | 31.17898 | 121.11936 | 20020 ft | 433 kts | 349° |
| 2026-04-30 14:11 | 31.20931 | 121.11783 | 20346 ft | 438 kts | 349° |
| 2026-04-30 14:11 | 31.23989 | 121.11628 | 20699 ft | 441 kts | 349° |
| 2026-04-30 14:11 | 31.27072 | 121.11463 | 21065 ft | 444 kts | 348° |
| 2026-04-30 14:11 | 31.30167 | 121.11289 | 21423 ft | 447 kts | 348° |
| 2026-04-30 14:12 | 31.33287 | 121.11108 | 21783 ft | 450 kts | 348° |
| 2026-04-30 14:12 | 31.36442 | 121.11073 | 22128 ft | 460 kts | 354° |
| 2026-04-30 14:12 | 31.39655 | 121.11288 | 22471 ft | 463 kts | 354° |
| 2026-04-30 14:12 | 31.41775 | 121.11346 | 22731 ft | 459 kts | 349° |
| 2026-04-30 14:13 | 31.45915 | 121.10718 | 23117 ft | 448 kts | 336° |
| 2026-04-30 14:13 | 31.48889 | 121.09594 | 23443 ft | 439 kts | 327° |
| 2026-04-30 14:13 | 31.51625 | 121.08150 | 23751 ft | 438 kts | 325° |
| 2026-04-30 14:13 | 31.54408 | 121.06664 | 24048 ft | 440 kts | 326° |
| 2026-04-30 14:14 | 31.57201 | 121.05179 | 24358 ft | 442 kts | 326° |
| 2026-04-30 14:14 | 31.60008 | 121.03688 | 24656 ft | 443 kts | 326° |
| 2026-04-30 14:14 | 31.62825 | 121.02194 | 24958 ft | 444 kts | 326° |
| 2026-04-30 14:14 | 31.65649 | 121.00694 | 25246 ft | 446 kts | 325° |
| 2026-04-30 14:15 | 31.67526 | 120.99695 | 25429 ft | 447 kts | 325° |
| 2026-04-30 14:15 | 31.70362 | 120.98186 | 25722 ft | 449 kts | 325° |
| 2026-04-30 14:15 | 31.73209 | 120.96666 | 25960 ft | 451 kts | 325° |
| 2026-04-30 14:15 | 31.76066 | 120.95136 | 26270 ft | 451 kts | 325° |
| 2026-04-30 14:16 | 31.78925 | 120.93606 | 26583 ft | 451 kts | 325° |
| 2026-04-30 14:16 | 31.81785 | 120.92075 | 26842 ft | 452 kts | 325° |
| 2026-04-30 14:16 | 31.84656 | 120.90542 | 27086 ft | 454 kts | 325° |
| 2026-04-30 14:16 | 31.87534 | 120.89005 | 27329 ft | 455 kts | 325° |
| 2026-04-30 14:17 | 31.90420 | 120.87461 | 27617 ft | 455 kts | 324° |
| 2026-04-30 14:17 | 31.93301 | 120.85918 | 27972 ft | 454 kts | 324° |
| 2026-04-30 14:17 | 31.96168 | 120.84380 | 28406 ft | 453 kts | 324° |
| 2026-04-30 14:17 | 31.99039 | 120.82833 | 28637 ft | 455 kts | 324° |
| 2026-04-30 14:18 | 32.01919 | 120.81280 | 28928 ft | 455 kts | 324° |
| 2026-04-30 14:18 | 32.04796 | 120.79732 | 29256 ft | 455 kts | 324° |
| 2026-04-30 14:18 | 32.10459 | 120.76524 | 29938 ft | 441 kts | 316° |
| 2026-04-30 14:19 | 32.14755 | 120.71800 | 30234 ft | 410 kts | 295° |
| 2026-04-30 14:19 | 32.16171 | 120.68945 | 30230 ft | 398 kts | 286° |
| 2026-04-30 14:20 | 32.17561 | 120.62808 | 30230 ft | 382 kts | 270° |
| 2026-04-30 14:20 | 32.18337 | 120.53446 | 30233 ft | 382 kts | 270° |
| 2026-04-30 14:21 | 32.18851 | 120.47207 | 30233 ft | 382 kts | 270° |
| 2026-04-30 14:22 | 32.19618 | 120.37880 | 30267 ft | 382 kts | 270° |
| 2026-04-30 14:22 | 32.20382 | 120.28503 | 30250 ft | 382 kts | 270° |
| 2026-04-30 14:23 | 32.21407 | 120.16002 | 30234 ft | 382 kts | 271° |
| 2026-04-30 14:24 | 32.22099 | 120.07519 | 30234 ft | 383 kts | 271° |
| 2026-04-30 14:25 | 32.23068 | 119.95376 | 30229 ft | 384 kts | 271° |
| 2026-04-30 14:26 | 32.23812 | 119.85937 | 30225 ft | 385 kts | 271° |
| 2026-04-30 14:26 | 32.24603 | 119.79674 | 30247 ft | 391 kts | 283° |
| 2026-04-30 14:27 | 32.25736 | 119.76716 | 30235 ft | 401 kts | 295° |
| 2026-04-30 14:27 | 32.27440 | 119.74054 | 30226 ft | 413 kts | 306° |
| 2026-04-30 14:27 | 32.29657 | 119.71816 | 30222 ft | 425 kts | 315° |
| 2026-04-30 14:28 | 32.36060 | 119.66371 | 30215 ft | 426 kts | 315° |
| 2026-04-30 14:28 | 32.41699 | 119.61578 | 30217 ft | 427 kts | 315° |
| 2026-04-30 14:29 | 32.50506 | 119.54026 | 30219 ft | 427 kts | 315° |
| 2026-04-30 14:31 | 32.63245 | 119.42997 | 30227 ft | 425 kts | 317° |
| 2026-04-30 14:31 | 32.69638 | 119.37450 | 30223 ft | 426 kts | 316° |
| 2026-04-30 14:32 | 32.76782 | 119.31239 | 30218 ft | 426 kts | 317° |
| 2026-04-30 14:33 | 32.81564 | 119.27085 | 30210 ft | 426 kts | 317° |
| 2026-04-30 14:33 | 32.88731 | 119.20840 | 30228 ft | 425 kts | 317° |
| 2026-04-30 14:34 | 32.93484 | 119.16681 | 30225 ft | 424 kts | 317° |
| 2026-04-30 14:34 | 32.98254 | 119.12551 | 30225 ft | 424 kts | 318° |
| 2026-04-30 14:35 | 33.05429 | 119.06395 | 30219 ft | 423 kts | 318° |
| 2026-04-30 14:36 | 33.10192 | 119.02281 | 30212 ft | 422 kts | 318° |
| 2026-04-30 14:36 | 33.14949 | 118.98161 | 30208 ft | 422 kts | 318° |
| 2026-04-30 14:37 | 33.19707 | 118.94040 | 30242 ft | 422 kts | 320° |
| 2026-04-30 14:37 | 33.24446 | 118.89920 | 30237 ft | 420 kts | 319° |
| 2026-04-30 14:38 | 33.29132 | 118.85822 | 30233 ft | 419 kts | 319° |
| 2026-04-30 14:38 | 33.33841 | 118.81716 | 30222 ft | 418 kts | 320° |
| 2026-04-30 14:39 | 33.38558 | 118.77628 | 30216 ft | 418 kts | 320° |
| 2026-04-30 14:39 | 33.43273 | 118.73553 | 30213 ft | 418 kts | 320° |
| 2026-04-30 14:40 | 33.50350 | 118.67424 | 30216 ft | 419 kts | 320° |
| 2026-04-30 14:40 | 33.55067 | 118.63322 | 30205 ft | 418 kts | 321° |
| 2026-04-30 14:41 | 33.59780 | 118.59230 | 30205 ft | 418 kts | 321° |
| 2026-04-30 14:41 | 33.64456 | 118.55170 | 30194 ft | 417 kts | 321° |
| 2026-04-30 14:42 | 33.69161 | 118.51084 | 30189 ft | 417 kts | 321° |
| 2026-04-30 14:42 | 33.73863 | 118.46986 | 30188 ft | 417 kts | 321° |
| 2026-04-30 14:43 | 33.78565 | 118.42884 | 30190 ft | 418 kts | 321° |
| 2026-04-30 14:43 | 33.83265 | 118.38769 | 30185 ft | 418 kts | 321° |
| 2026-04-30 14:44 | 33.87959 | 118.34650 | 30166 ft | 417 kts | 322° |
| 2026-04-30 14:44 | 33.92646 | 118.30534 | 30171 ft | 417 kts | 322° |
| 2026-04-30 14:45 | 33.97329 | 118.26428 | 30171 ft | 416 kts | 322° |
| 2026-04-30 14:45 | 34.02022 | 118.22336 | 30167 ft | 416 kts | 322° |
| 2026-04-30 14:46 | 34.06720 | 118.18249 | 30169 ft | 417 kts | 323° |
| 2026-04-30 14:46 | 34.11428 | 118.14151 | 30146 ft | 418 kts | 323° |
| 2026-04-30 14:47 | 34.16145 | 118.10047 | 30138 ft | 418 kts | 323° |
| 2026-04-30 14:47 | 34.20867 | 118.05930 | 30110 ft | 419 kts | 323° |
| 2026-04-30 14:48 | 34.25583 | 118.01810 | 30144 ft | 418 kts | 324° |
| 2026-04-30 14:48 | 34.30805 | 117.98758 | 30151 ft | 420 kts | 341° |
| 2026-04-30 14:49 | 34.36415 | 117.96769 | 30168 ft | 420 kts | 342° |
| 2026-04-30 14:49 | 34.42015 | 117.94786 | 30167 ft | 419 kts | 342° |
| 2026-04-30 14:50 | 34.50391 | 117.91793 | 30164 ft | 418 kts | 342° |
| 2026-04-30 14:51 | 34.58761 | 117.88792 | 30171 ft | 418 kts | 342° |
| 2026-04-30 14:52 | 34.67063 | 117.85805 | 30169 ft | 416 kts | 342° |
| 2026-04-30 14:52 | 34.75381 | 117.82809 | 30153 ft | 415 kts | 342° |
| 2026-04-30 14:53 | 34.83671 | 117.79818 | 30155 ft | 414 kts | 343° |
| 2026-04-30 14:54 | 34.94697 | 117.75772 | 30143 ft | 413 kts | 343° |
| 2026-04-30 14:55 | 35.02953 | 117.72744 | 30147 ft | 413 kts | 343° |
| 2026-04-30 14:56 | 35.13961 | 117.68721 | 30141 ft | 412 kts | 343° |
| 2026-04-30 14:57 | 35.22185 | 117.65706 | 30136 ft | 411 kts | 343° |
| 2026-04-30 14:58 | 35.33114 | 117.61678 | 30118 ft | 411 kts | 343° |
| 2026-04-30 14:58 | 35.41327 | 117.58651 | 30120 ft | 411 kts | 344° |
| 2026-04-30 15:00 | 35.54999 | 117.53587 | 30118 ft | 410 kts | 344° |
| 2026-04-30 15:01 | 35.65930 | 117.49520 | 30109 ft | 410 kts | 344° |
| 2026-04-30 15:01 | 35.74120 | 117.46470 | 30091 ft | 410 kts | 344° |
| 2026-04-30 15:02 | 35.79597 | 117.44428 | 30103 ft | 411 kts | 344° |
| 2026-04-30 15:03 | 35.93220 | 117.39343 | 30106 ft | 409 kts | 345° |
| 2026-04-30 15:04 | 36.06846 | 117.34257 | 30087 ft | 409 kts | 345° |
| 2026-04-30 15:06 | 36.20473 | 117.29235 | 30083 ft | 408 kts | 345° |
| 2026-04-30 15:07 | 36.31353 | 117.25189 | 30062 ft | 408 kts | 345° |
| 2026-04-30 15:08 | 36.42218 | 117.21071 | 30068 ft | 410 kts | 341° |
| 2026-04-30 15:09 | 36.55354 | 117.14259 | 30080 ft | 409 kts | 340° |
| 2026-04-30 15:10 | 36.65839 | 117.08802 | 30087 ft | 407 kts | 340° |
| 2026-04-30 15:11 | 36.81467 | 117.00614 | 30066 ft | 406 kts | 340° |
| 2026-04-30 15:13 | 36.94463 | 116.93783 | 30066 ft | 405 kts | 340° |
| 2026-04-30 15:14 | 37.12628 | 116.84206 | 30063 ft | 406 kts | 340° |
| 2026-04-30 15:17 | 37.35640 | 116.74142 | 30047 ft | 404 kts | 346° |
| 2026-04-30 15:19 | 37.57210 | 116.65975 | 30045 ft | 405 kts | 346° |